Time;durP1;ratioP1;P1;durP2;ratioP2;P2;SDS_P1;SDS_P2;PMS_P1;PMS_P2;Temp;Humidity;BMP_temperature;BMP_pressure;BME280_temperature;BME280_humidity;BME280_pressure;Samples;Min_cycle;Max_cycle;Signal;HPM_P1;HPM_P2
2021/10/22 00:00:12;;;;;;;0.10;0.10;;;;;;;;;;4995281;28;20747;-75
2021/10/22 00:02:37;;;;;;;0.00;0.00;;;;;;;;;;4995102;28;20034;-75
2021/10/22 00:05:03;;;;;;;0.10;0.10;;;;;;;;;;4995265;28;20119;-75
2021/10/22 00:07:28;;;;;;;0.10;0.10;;;;;;;;;;4995109;28;20363;-75
2021/10/22 00:09:55;;;;;;;0.30;0.30;;;;;;;;;;4994560;28;20505;-75
2021/10/22 00:12:20;;;;;;;0.75;0.55;;;;;;;;;;4994572;28;20026;-76
2021/10/22 00:14:46;;;;;;;0.22;0.22;;;;;;;;;;4995190;28;20029;-76
2021/10/22 00:17:11;;;;;;;0.35;0.35;;;;;;;;;;4995061;28;20414;-75
2021/10/22 00:19:36;;;;;;;0.30;0.30;;;;;;;;;;4994936;28;20046;-75
2021/10/22 00:22:02;;;;;;;1.52;1.42;;;;;;;;;;4994855;28;20693;-75
2021/10/22 00:24:28;;;;;;;0.10;0.10;;;;;;;;;;4994637;28;20087;-75
2021/10/22 00:26:53;;;;;;;0.30;0.20;;;;;;;;;;4994699;28;20034;-75
2021/10/22 00:29:18;;;;;;;0.30;0.28;;;;;;;;;;4994909;28;20363;-75
2021/10/22 00:31:43;;;;;;;0.30;0.30;;;;;;;;;;4994548;28;20486;-76
2021/10/22 00:34:09;;;;;;;0.10;0.10;;;;;;;;;;4994614;28;20044;-75
2021/10/22 00:36:35;;;;;;;0.10;0.10;;;;;;;;;;4994659;28;20025;-75
2021/10/22 00:39:00;;;;;;;0.20;0.20;;;;;;;;;;4994481;28;20034;-76
2021/10/22 00:41:27;;;;;;;0.30;0.30;;;;;;;;;;4994624;28;20434;-76
2021/10/22 00:43:52;;;;;;;0.10;0.10;;;;;;;;;;4991096;28;20050;-78
2021/10/22 00:46:17;;;;;;;0.40;0.40;;;;;;;;;;4993200;28;20065;-75
2021/10/22 00:48:42;;;;;;;0.88;0.82;;;;;;;;;;4994095;28;20092;-75
2021/10/22 00:51:10;;;;;;;0.10;0.10;;;;;;;;;;4993937;28;20477;-76
2021/10/22 00:53:38;;;;;;;3.25;1.85;;;;;;;;;;4994056;28;20026;-75
2021/10/22 00:56:07;;;;;;;0.28;0.22;;;;;;;;;;4993959;28;20042;-75
2021/10/22 00:58:33;;;;;;;0.20;0.20;;;;;;;;;;4994048;28;20050;-76
2021/10/22 01:00:58;;;;;;;0.10;0.10;;;;;;;;;;4994295;28;20505;-75
2021/10/22 01:03:23;;;;;;;0.10;0.10;;;;;;;;;;4994091;28;20030;-75
2021/10/22 01:05:49;;;;;;;0.10;0.10;;;;;;;;;;4994232;28;20386;-75
2021/10/22 01:08:14;;;;;;;0.03;0.03;;;;;;;;;;4994162;28;20101;-75
2021/10/22 01:10:40;;;;;;;0.10;0.10;;;;;;;;;;4993670;28;20121;-76
2021/10/22 01:13:08;;;;;;;0.10;0.10;;;;;;;;;;4993800;28;20359;-75
2021/10/22 01:15:34;;;;;;;0.10;0.10;;;;;;;;;;4994010;28;20030;-76
2021/10/22 01:18:00;;;;;;;0.10;0.10;;;;;;;;;;4994034;28;20433;-76
2021/10/22 01:20:26;;;;;;;0.20;0.20;;;;;;;;;;4994306;28;20430;-75
2021/10/22 01:22:52;;;;;;;0.10;0.10;;;;;;;;;;4993729;28;20061;-75
2021/10/22 01:25:19;;;;;;;0.20;0.20;;;;;;;;;;4993002;28;20050;-76
2021/10/22 01:27:45;;;;;;;0.00;0.00;;;;;;;;;;4993852;28;20081;-77
2021/10/22 01:30:11;;;;;;;0.15;0.15;;;;;;;;;;4993966;28;20035;-75
2021/10/22 01:32:37;;;;;;;0.10;0.10;;;;;;;;;;4993819;28;20117;-75
2021/10/22 01:35:06;;;;;;;0.10;0.10;;;;;;;;;;4993678;28;20105;-75
2021/10/22 01:37:32;;;;;;;0.10;0.10;;;;;;;;;;4993944;28;20467;-75
2021/10/22 01:39:57;;;;;;;0.10;0.10;;;;;;;;;;4993538;28;20045;-76
2021/10/22 01:42:23;;;;;;;0.00;0.00;;;;;;;;;;4993834;28;20416;-75
2021/10/22 01:44:49;;;;;;;0.00;0.00;;;;;;;;;;4993720;28;20061;-75
2021/10/22 01:47:14;;;;;;;0.10;0.10;;;;;;;;;;4993812;28;20034;-75
2021/10/22 01:49:39;;;;;;;0.10;0.10;;;;;;;;;;4993383;28;20049;-75
2021/10/22 01:52:05;;;;;;;0.10;0.10;;;;;;;;;;4993740;28;20039;-75
2021/10/22 01:54:30;;;;;;;0.63;0.63;;;;;;;;;;4993609;28;20046;-75
2021/10/22 01:56:57;;;;;;;0.10;0.10;;;;;;;;;;4993525;28;20486;-75
2021/10/22 01:59:23;;;;;;;0.13;0.13;;;;;;;;;;4993264;28;20424;-75
2021/10/22 02:01:48;;;;;;;0.10;0.10;;;;;;;;;;4993399;28;20039;-76
2021/10/22 02:04:13;;;;;;;0.10;0.10;;;;;;;;;;4993662;28;20018;-76
2021/10/22 02:06:39;;;;;;;1.30;0.73;;;;;;;;;;4993873;28;20038;-76
2021/10/22 02:09:04;;;;;;;1.80;1.65;;;;;;;;;;4993432;28;20478;-76
2021/10/22 02:11:29;;;;;;;0.90;0.90;;;;;;;;;;4993495;28;20022;-75
2021/10/22 02:13:55;;;;;;;0.10;0.10;;;;;;;;;;4993150;28;20057;-75
2021/10/22 02:16:20;;;;;;;16.50;1.00;;;;;;;;;;4993491;28;20125;-75
2021/10/22 02:18:45;;;;;;;0.10;0.10;;;;;;;;;;4993410;28;20446;-75
2021/10/22 02:21:11;;;;;;;0.30;0.30;;;;;;;;;;4993394;28;20037;-75
2021/10/22 02:23:36;;;;;;;0.00;0.00;;;;;;;;;;4993320;28;20082;-75
2021/10/22 02:26:02;;;;;;;0.10;0.10;;;;;;;;;;4993695;28;20022;-75
2021/10/22 02:28:28;;;;;;;0.00;0.00;;;;;;;;;;4993453;28;20035;-75
2021/10/22 02:30:55;;;;;;;0.00;0.00;;;;;;;;;;4993458;28;20133;-75
2021/10/22 02:33:21;;;;;;;0.00;0.00;;;;;;;;;;4993405;28;20019;-75
2021/10/22 02:35:46;;;;;;;0.10;0.10;;;;;;;;;;4994707;28;20038;-75
2021/10/22 02:38:12;;;;;;;0.10;0.10;;;;;;;;;;4996411;28;20498;-76
2021/10/22 02:40:37;;;;;;;0.10;0.10;;;;;;;;;;4996695;28;20046;-76
2021/10/22 02:43:03;;;;;;;0.10;0.10;;;;;;;;;;4996434;28;20086;-76
2021/10/22 02:45:28;;;;;;;0.10;0.10;;;;;;;;;;4996514;28;20034;-75
2021/10/22 02:47:53;;;;;;;0.10;0.10;;;;;;;;;;4996392;28;20026;-75
2021/10/22 02:50:21;;;;;;;0.10;0.10;;;;;;;;;;4996443;28;20038;-75
2021/10/22 02:52:46;;;;;;;0.00;0.00;;;;;;;;;;4996467;28;20042;-76
2021/10/22 02:55:11;;;;;;;0.20;0.20;;;;;;;;;;4996803;28;20034;-75
2021/10/22 02:57:37;;;;;;;0.15;0.15;;;;;;;;;;4996393;28;20030;-76
2021/10/22 03:00:03;;;;;;;0.00;0.00;;;;;;;;;;4996344;28;20474;-76
2021/10/22 03:02:29;;;;;;;1.85;1.67;;;;;;;;;;4996319;28;20019;-75
2021/10/22 03:04:55;;;;;;;0.30;0.30;;;;;;;;;;4996307;28;20034;-75
2021/10/22 03:07:20;;;;;;;0.10;0.10;;;;;;;;;;4996355;28;20550;-75
2021/10/22 03:09:45;;;;;;;0.10;0.10;;;;;;;;;;4996286;28;20498;-75
2021/10/22 03:12:10;;;;;;;0.22;0.22;;;;;;;;;;4996221;28;20031;-75
2021/10/22 03:14:36;;;;;;;0.10;0.10;;;;;;;;;;4996123;28;20042;-78
2021/10/22 03:17:01;;;;;;;0.30;0.30;;;;;;;;;;4996053;28;20017;-76
2021/10/22 03:19:26;;;;;;;0.00;0.00;;;;;;;;;;4995779;28;20486;-75
2021/10/22 03:21:52;;;;;;;0.10;0.10;;;;;;;;;;4996027;28;20083;-76
2021/10/22 03:24:17;;;;;;;0.10;0.10;;;;;;;;;;4995930;28;20112;-75
2021/10/22 03:26:42;;;;;;;0.10;0.10;;;;;;;;;;4995969;28;20057;-75
2021/10/22 03:29:07;;;;;;;0.10;0.10;;;;;;;;;;4995759;28;20141;-75
2021/10/22 03:31:34;;;;;;;0.05;0.05;;;;;;;;;;4995993;28;20021;-75
2021/10/22 03:34:00;;;;;;;0.00;0.00;;;;;;;;;;4995380;28;20379;-76
2021/10/22 03:36:25;;;;;;;0.30;0.30;;;;;;;;;;4995576;28;20042;-77
2021/10/22 03:38:50;;;;;;;0.10;0.10;;;;;;;;;;4995619;28;20022;-76
2021/10/22 03:41:16;;;;;;;0.10;0.10;;;;;;;;;;4995797;28;20030;-76
2021/10/22 03:43:41;;;;;;;0.10;0.10;;;;;;;;;;4995586;28;20356;-75
2021/10/22 03:46:06;;;;;;;0.00;0.00;;;;;;;;;;4995429;28;20482;-75
2021/10/22 03:48:32;;;;;;;0.10;0.10;;;;;;;;;;4994881;28;20113;-75
2021/10/22 03:50:57;;;;;;;0.10;0.10;;;;;;;;;;4995358;28;20041;-76
2021/10/22 03:53:22;;;;;;;0.03;0.03;;;;;;;;;;4995380;28;20138;-76
2021/10/22 03:55:48;;;;;;;0.10;0.10;;;;;;;;;;4995287;28;20077;-77
2021/10/22 03:58:13;;;;;;;0.10;0.10;;;;;;;;;;4995286;28;20041;-75
2021/10/22 04:00:40;;;;;;;0.10;0.10;;;;;;;;;;4995218;28;20019;-75
2021/10/22 04:03:05;;;;;;;0.10;0.10;;;;;;;;;;4995260;28;20033;-75
2021/10/22 04:05:30;;;;;;;0.03;0.03;;;;;;;;;;4995584;28;20042;-75
2021/10/22 04:07:57;;;;;;;0.10;0.10;;;;;;;;;;4995197;28;20553;-76
2021/10/22 04:10:22;;;;;;;0.10;0.10;;;;;;;;;;4994715;28;20073;-76
2021/10/22 04:12:47;;;;;;;0.10;0.10;;;;;;;;;;4994961;28;20557;-76
2021/10/22 04:15:12;;;;;;;1.90;0.65;;;;;;;;;;4994677;28;20022;-75
2021/10/22 04:17:38;;;;;;;0.10;0.10;;;;;;;;;;4994985;28;20054;-77
2021/10/22 04:20:04;;;;;;;0.13;0.13;;;;;;;;;;4994801;28;20042;-75
2021/10/22 04:22:30;;;;;;;0.57;0.57;;;;;;;;;;4994526;28;20014;-76
2021/10/22 04:24:55;;;;;;;0.15;0.15;;;;;;;;;;4995038;28;20038;-76
2021/10/22 04:27:20;;;;;;;0.30;0.30;;;;;;;;;;4994930;28;20081;-75
2021/10/22 04:29:45;;;;;;;0.00;0.00;;;;;;;;;;4994767;28;20498;-75
2021/10/22 04:32:11;;;;;;;0.10;0.10;;;;;;;;;;4995039;28;20105;-75
2021/10/22 04:34:36;;;;;;;0.10;0.10;;;;;;;;;;4994608;28;20042;-76
2021/10/22 04:37:22;;;;;;;0.10;0.10;;;;;;;;;;4994512;28;20025;-76
2021/10/22 04:42:30;;;;;;;0.30;0.30;;;;;;;;;;4994284;28;20338;-78
2021/10/22 04:44:56;;;;;;;0.10;0.10;;;;;;;;;;4994392;28;20425;-76
2021/10/22 04:47:21;;;;;;;0.10;0.10;;;;;;;;;;4994487;28;20491;-75
2021/10/22 04:49:46;;;;;;;0.00;0.00;;;;;;;;;;4976882;28;20023;-75
2021/10/22 04:52:11;;;;;;;0.00;0.00;;;;;;;;;;4994464;28;20077;-75
2021/10/22 04:54:37;;;;;;;0.10;0.10;;;;;;;;;;4993979;28;20049;-75
2021/10/22 04:57:02;;;;;;;2.28;2.08;;;;;;;;;;4994286;28;20080;-75
2021/10/22 04:59:27;;;;;;;0.00;0.00;;;;;;;;;;4994014;28;20054;-75
2021/10/22 05:01:52;;;;;;;0.00;0.00;;;;;;;;;;4994217;28;20034;-76
2021/10/22 05:04:18;;;;;;;0.10;0.10;;;;;;;;;;4994269;28;20371;-75
2021/10/22 05:06:43;;;;;;;0.10;0.10;;;;;;;;;;4994268;28;20034;-76
2021/10/22 05:09:08;;;;;;;0.15;0.15;;;;;;;;;;4994406;28;20105;-75
2021/10/22 05:11:34;;;;;;;0.10;0.10;;;;;;;;;;4994247;28;20072;-76
2021/10/22 05:13:59;;;;;;;0.10;0.10;;;;;;;;;;4994067;28;20034;-76
2021/10/22 05:16:24;;;;;;;0.10;0.10;;;;;;;;;;4994054;28;20100;-76
2021/10/22 05:18:50;;;;;;;0.10;0.10;;;;;;;;;;4994283;28;20026;-75
2021/10/22 05:21:15;;;;;;;0.08;0.08;;;;;;;;;;4994003;28;20030;-75
2021/10/22 05:23:40;;;;;;;0.10;0.10;;;;;;;;;;4993971;28;20509;-75
2021/10/22 05:26:06;;;;;;;0.10;0.10;;;;;;;;;;4993895;28;20061;-75
2021/10/22 05:28:31;;;;;;;0.10;0.10;;;;;;;;;;4994028;28;20526;-75
2021/10/22 05:30:56;;;;;;;0.10;0.10;;;;;;;;;;4993853;28;20042;-75
2021/10/22 05:33:22;;;;;;;0.10;0.10;;;;;;;;;;4993913;28;20023;-76
2021/10/22 05:35:47;;;;;;;0.10;0.10;;;;;;;;;;4993661;28;20046;-75
2021/10/22 05:38:13;;;;;;;0.10;0.10;;;;;;;;;;4994164;28;20039;-76
2021/10/22 05:40:39;;;;;;;0.10;0.10;;;;;;;;;;4993928;28;20049;-76
2021/10/22 05:43:04;;;;;;;0.00;0.00;;;;;;;;;;4993739;28;20109;-76
2021/10/22 05:45:29;;;;;;;0.10;0.10;;;;;;;;;;4993639;28;20464;-75
2021/10/22 05:47:55;;;;;;;0.10;0.10;;;;;;;;;;4993721;28;20015;-76
2021/10/22 05:50:20;;;;;;;0.10;0.10;;;;;;;;;;4993805;28;20034;-76
2021/10/22 05:52:45;;;;;;;0.10;0.10;;;;;;;;;;4993639;28;20360;-76
2021/10/22 05:55:11;;;;;;;0.20;0.20;;;;;;;;;;4993367;28;20040;-76
2021/10/22 05:57:36;;;;;;;0.00;0.00;;;;;;;;;;4994031;28;20035;-76
2021/10/22 06:00:02;;;;;;;0.10;0.10;;;;;;;;;;4993529;28;20045;-76
2021/10/22 06:02:27;;;;;;;1.13;0.80;;;;;;;;;;4993450;28;20057;-76
2021/10/22 06:04:53;;;;;;;0.00;0.00;;;;;;;;;;4993615;28;20041;-75
2021/10/22 06:07:18;;;;;;;0.00;0.00;;;;;;;;;;4993842;28;20041;-76
2021/10/22 06:09:43;;;;;;;11.38;0.90;;;;;;;;;;4993727;28;20050;-75
2021/10/22 06:12:09;;;;;;;0.10;0.10;;;;;;;;;;4996957;28;20041;-76
2021/10/22 06:14:34;;;;;;;0.10;0.10;;;;;;;;;;4997341;28;20049;-75
2021/10/22 06:17:01;;;;;;;0.10;0.10;;;;;;;;;;4979554;28;20570;-75
2021/10/22 06:19:30;;;;;;;0.00;0.00;;;;;;;;;;4997377;28;20034;-76
2021/10/22 06:22:09;;;;;;;0.00;0.00;;;;;;;;;;4997060;28;20030;-76
2021/10/22 06:24:35;;;;;;;0.30;0.30;;;;;;;;;;4997240;28;20033;-76
2021/10/22 06:27:00;;;;;;;0.20;0.20;;;;;;;;;;4996909;28;20030;-76
2021/10/22 06:29:26;;;;;;;0.20;0.20;;;;;;;;;;4996897;28;20447;-77
2021/10/22 06:31:51;;;;;;;0.10;0.10;;;;;;;;;;4996732;28;20019;-77
2021/10/22 06:34:16;;;;;;;0.00;0.00;;;;;;;;;;4996905;28;20037;-78
2021/10/22 06:36:41;;;;;;;0.10;0.10;;;;;;;;;;4996861;28;20018;-80
2021/10/22 06:39:07;;;;;;;0.00;0.00;;;;;;;;;;4996930;28;20480;-78
2021/10/22 06:41:33;;;;;;;0.25;0.25;;;;;;;;;;4996895;28;20038;-77
2021/10/22 06:43:58;;;;;;;0.10;0.10;;;;;;;;;;4997008;28;20145;-77
2021/10/22 06:46:24;;;;;;;0.52;0.52;;;;;;;;;;4996832;28;20021;-78
2021/10/22 06:48:49;;;;;;;0.10;0.10;;;;;;;;;;4996329;28;20037;-78
2021/10/22 06:51:16;;;;;;;7.05;0.70;;;;;;;;;;4996340;28;20097;-77
2021/10/22 06:53:41;;;;;;;0.00;0.00;;;;;;;;;;4996665;28;20049;-77
2021/10/22 06:56:07;;;;;;;0.20;0.20;;;;;;;;;;4996146;28;20128;-77
2021/10/22 06:58:32;;;;;;;0.00;0.00;;;;;;;;;;4978533;28;20023;-80
2021/10/22 07:00:59;;;;;;;0.00;0.00;;;;;;;;;;4995982;28;20050;-78
2021/10/22 07:03:26;;;;;;;0.10;0.10;;;;;;;;;;4996363;28;20041;-78
2021/10/22 07:08:23;;;;;;;0.10;0.10;;;;;;;;;;4989344;28;20097;-78
2021/10/22 07:10:49;;;;;;;0.10;0.10;;;;;;;;;;4995026;28;20138;-79
2021/10/22 07:13:15;;;;;;;0.10;0.10;;;;;;;;;;4995842;28;20117;-78
2021/10/22 07:15:40;;;;;;;0.00;0.00;;;;;;;;;;4972513;28;20038;-79
2021/10/22 07:18:06;;;;;;;0.10;0.10;;;;;;;;;;4988280;28;20042;-79
2021/10/22 07:20:32;;;;;;;0.10;0.10;;;;;;;;;;4981461;28;20014;-77
2021/10/22 07:25:30;;;;;;;0.00;0.00;;;;;;;;;;4991974;28;20042;-78
2021/10/22 07:27:55;;;;;;;0.00;0.00;;;;;;;;;;4992054;28;20121;-77
2021/10/22 07:30:20;;;;;;;0.10;0.10;;;;;;;;;;4978448;28;20101;-77
2021/10/22 07:32:47;;;;;;;0.00;0.00;;;;;;;;;;4987524;28;20152;-77
2021/10/22 07:35:13;;;;;;;0.10;0.10;;;;;;;;;;4981925;28;20463;-78
2021/10/22 07:37:38;;;;;;;0.00;0.00;;;;;;;;;;4995332;28;20080;-79
2021/10/22 07:40:04;;;;;;;0.08;0.08;;;;;;;;;;4994387;28;20045;-78
2021/10/22 07:42:30;;;;;;;0.13;0.13;;;;;;;;;;4994853;28;20019;-78
2021/10/22 07:44:56;;;;;;;0.10;0.10;;;;;;;;;;4994299;28;20477;-78
2021/10/22 07:47:22;;;;;;;0.10;0.10;;;;;;;;;;4994441;28;20040;-79
2021/10/22 07:49:49;;;;;;;0.00;0.00;;;;;;;;;;4993568;28;20456;-79
2021/10/22 07:52:17;;;;;;;0.10;0.10;;;;;;;;;;4985425;28;20031;-79
2021/10/22 07:54:42;;;;;;;0.00;0.00;;;;;;;;;;4973096;28;20039;-79
2021/10/22 07:57:07;;;;;;;0.00;0.00;;;;;;;;;;4975377;28;20027;-79
2021/10/22 07:59:32;;;;;;;0.00;0.00;;;;;;;;;;4988235;28;20068;-79
2021/10/22 08:01:58;;;;;;;0.03;0.03;;;;;;;;;;4979514;28;20037;-79
2021/10/22 08:04:23;;;;;;;0.00;0.00;;;;;;;;;;4990135;28;20029;-78
2021/10/22 08:06:48;;;;;;;0.00;0.00;;;;;;;;;;4991523;28;20022;-78
2021/10/22 08:09:14;;;;;;;0.10;0.10;;;;;;;;;;4990543;28;20050;-78
2021/10/22 08:11:39;;;;;;;0.00;0.00;;;;;;;;;;4991016;28;20037;-79
2021/10/22 08:14:04;;;;;;;0.00;0.00;;;;;;;;;;4991075;28;20389;-79
2021/10/22 08:16:30;;;;;;;0.08;0.08;;;;;;;;;;4991125;28;20046;-78
2021/10/22 08:18:55;;;;;;;0.10;0.10;;;;;;;;;;4991498;28;20104;-79
2021/10/22 08:24:00;;;;;;;0.00;0.00;;;;;;;;;;4991030;28;20042;-77
2021/10/22 08:26:26;;;;;;;0.10;0.10;;;;;;;;;;4991168;28;20018;-78
2021/10/22 08:28:51;;;;;;;0.28;0.20;;;;;;;;;;4990079;28;20062;-79
2021/10/22 08:31:17;;;;;;;0.00;0.00;;;;;;;;;;4992108;28;20026;-78
2021/10/22 08:33:42;;;;;;;0.00;0.00;;;;;;;;;;4991025;28;20034;-80
2021/10/22 08:36:08;;;;;;;0.05;0.05;;;;;;;;;;4991451;28;20042;-78
2021/10/22 08:38:35;;;;;;;0.20;0.20;;;;;;;;;;4990923;28;20109;-78
2021/10/22 08:41:01;;;;;;;0.00;0.00;;;;;;;;;;4990700;28;20049;-77
2021/10/22 08:43:27;;;;;;;0.00;0.00;;;;;;;;;;4967524;28;20031;-83
2021/10/22 08:45:53;;;;;;;0.00;0.00;;;;;;;;;;4981260;28;20029;-79
2021/10/22 08:48:19;;;;;;;0.20;0.20;;;;;;;;;;4975050;28;20027;-78
2021/10/22 08:50:44;;;;;;;0.00;0.00;;;;;;;;;;4967407;28;20038;-78
2021/10/22 08:53:09;;;;;;;0.08;0.08;;;;;;;;;;4969369;28;20023;-78
2021/10/22 08:55:34;;;;;;;0.20;0.20;;;;;;;;;;4970056;28;20039;-77
2021/10/22 08:58:01;;;;;;;0.10;0.10;;;;;;;;;;4970668;28;20047;-78
2021/10/22 09:00:26;;;;;;;0.00;0.00;;;;;;;;;;4953269;28;20031;-79
2021/10/22 09:02:52;;;;;;;0.00;0.00;;;;;;;;;;4970747;28;20494;-78
2021/10/22 09:05:23;;;;;;;1.02;0.47;;;;;;;;;;4969779;28;20031;-79
2021/10/22 09:07:48;;;;;;;0.40;0.28;;;;;;;;;;4974540;28;20029;-78
2021/10/22 09:10:18;;;;;;;0.00;0.00;;;;;;;;;;4972368;28;20054;-79
2021/10/22 09:12:43;;;;;;;0.00;0.00;;;;;;;;;;4967286;28;20680;-78
2021/10/22 09:15:09;;;;;;;0.55;0.55;;;;;;;;;;4970531;28;20039;-78
2021/10/22 09:17:38;;;;;;;0.00;0.00;;;;;;;;;;4969349;28;20023;-77
2021/10/22 09:20:04;;;;;;;0.00;0.00;;;;;;;;;;4967317;28;20515;-77
2021/10/22 09:22:32;;;;;;;0.00;0.00;;;;;;;;;;4969730;28;20022;-78
2021/10/22 09:25:00;;;;;;;0.00;0.00;;;;;;;;;;4966864;28;20054;-78
2021/10/22 09:27:32;;;;;;;0.10;0.10;;;;;;;;;;4968640;28;20098;-78
2021/10/22 09:29:57;;;;;;;0.00;0.00;;;;;;;;;;4969588;28;20022;-79
2021/10/22 09:32:22;;;;;;;0.05;0.05;;;;;;;;;;4970046;28;20456;-79
2021/10/22 09:34:50;;;;;;;0.00;0.00;;;;;;;;;;4969210;28;20042;-80
2021/10/22 09:37:16;;;;;;;0.00;0.00;;;;;;;;;;4970229;28;20019;-78
2021/10/22 09:39:41;;;;;;;0.10;0.10;;;;;;;;;;4970115;28;20102;-79
2021/10/22 09:42:16;;;;;;;0.00;0.00;;;;;;;;;;4969814;28;20039;-79
2021/10/22 09:44:46;;;;;;;0.20;0.10;;;;;;;;;;4969649;28;20479;-79
2021/10/22 09:47:18;;;;;;;0.00;0.00;;;;;;;;;;4973736;28;20141;-79
2021/10/22 09:49:51;;;;;;;0.45;0.45;;;;;;;;;;4973827;28;20074;-78
2021/10/22 09:52:19;;;;;;;0.77;0.30;;;;;;;;;;4973477;28;20104;-79
2021/10/22 09:54:46;;;;;;;0.00;0.00;;;;;;;;;;4973551;28;20027;-78
2021/10/22 09:57:14;;;;;;;0.00;0.00;;;;;;;;;;4972744;28;20038;-79
2021/10/22 09:59:40;;;;;;;0.00;0.00;;;;;;;;;;4973454;28;20081;-79
2021/10/22 10:02:07;;;;;;;0.00;0.00;;;;;;;;;;4973246;28;20459;-79
2021/10/22 10:04:32;;;;;;;0.05;0.05;;;;;;;;;;4973818;28;20035;-78
2021/10/22 10:07:01;;;;;;;0.73;0.32;;;;;;;;;;4973102;28;20031;-78
2021/10/22 10:09:27;;;;;;;0.05;0.05;;;;;;;;;;4972405;28;20407;-78
2021/10/22 10:11:54;;;;;;;0.20;0.20;;;;;;;;;;4973512;28;20464;-77
2021/10/22 10:14:22;;;;;;;0.00;0.00;;;;;;;;;;4973276;28;20038;-79
2021/10/22 10:16:48;;;;;;;0.47;0.47;;;;;;;;;;4972905;28;20026;-80
2021/10/22 10:19:21;;;;;;;0.00;0.00;;;;;;;;;;4973231;28;20105;-78
2021/10/22 10:21:53;;;;;;;0.00;0.00;;;;;;;;;;4973633;28;20030;-77
2021/10/22 10:24:20;;;;;;;0.00;0.00;;;;;;;;;;4973866;28;20093;-78
2021/10/22 10:26:59;;;;;;;0.00;0.00;;;;;;;;;;4973435;28;20483;-81
2021/10/22 10:29:29;;;;;;;0.00;0.00;;;;;;;;;;4972509;28;20375;-78
2021/10/22 10:32:05;;;;;;;0.00;0.00;;;;;;;;;;4972314;28;20030;-79
2021/10/22 10:34:30;;;;;;;0.00;0.00;;;;;;;;;;4961227;28;20027;-79
2021/10/22 10:36:58;;;;;;;0.00;0.00;;;;;;;;;;4955902;28;20042;-79
2021/10/22 10:39:36;;;;;;;6.30;0.75;;;;;;;;;;4953230;29;20027;-79
2021/10/22 10:42:22;;;;;;;0.00;0.00;;;;;;;;;;4953861;29;20070;-79
2021/10/22 10:44:48;;;;;;;0.10;0.10;;;;;;;;;;4953382;29;20037;-79
2021/10/22 10:47:26;;;;;;;0.00;0.00;;;;;;;;;;4955009;28;20442;-79
2021/10/22 10:49:51;;;;;;;0.00;0.00;;;;;;;;;;4961900;28;20034;-79
2021/10/22 10:52:35;;;;;;;0.00;0.00;;;;;;;;;;4960984;28;20023;-81
2021/10/22 10:55:16;;;;;;;0.20;0.20;;;;;;;;;;4947528;29;20046;-78
2021/10/22 10:57:46;;;;;;;0.00;0.00;;;;;;;;;;4951969;28;20046;-79
2021/10/22 11:00:15;;;;;;;0.00;0.00;;;;;;;;;;4952226;29;20382;-79
2021/10/22 11:02:59;;;;;;;0.75;0.75;;;;;;;;;;4952974;29;20102;-78
2021/10/22 11:05:47;;;;;;;0.00;0.00;;;;;;;;;;4951449;29;20031;-78
2021/10/22 11:08:21;;;;;;;0.20;0.20;;;;;;;;;;4952239;29;20551;-79
2021/10/22 11:13:45;;;;;;;0.00;0.00;;;;;;;;;;4972124;28;20114;-78
2021/10/22 11:16:42;;;;;;;0.00;0.00;;;;;;;;;;4972346;28;20128;-79
2021/10/22 11:19:13;;;;;;;0.00;0.00;;;;;;;;;;4971575;28;20082;-78
2021/10/22 11:21:46;;;;;;;0.10;0.10;;;;;;;;;;4971986;28;20117;-78
2021/10/22 11:24:19;;;;;;;0.00;0.00;;;;;;;;;;4971948;28;20081;-78
2021/10/22 11:26:52;;;;;;;0.00;0.00;;;;;;;;;;4971594;28;20519;-79
2021/10/22 11:29:18;;;;;;;0.00;0.00;;;;;;;;;;4971674;28;20050;-78
2021/10/22 11:31:48;;;;;;;0.00;0.00;;;;;;;;;;4971256;28;20030;-80
2021/10/22 11:34:13;;;;;;;0.00;0.00;;;;;;;;;;4971620;28;20031;-79
2021/10/22 11:36:40;;;;;;;0.00;0.00;;;;;;;;;;4971649;28;20391;-78
2021/10/22 11:39:22;;;;;;;0.00;0.00;;;;;;;;;;4971349;28;20430;-78
2021/10/22 11:42:01;;;;;;;0.10;0.10;;;;;;;;;;4971450;28;20121;-80
2021/10/22 11:44:26;;;;;;;0.00;0.00;;;;;;;;;;4972242;28;20114;-79
2021/10/22 11:46:51;;;;;;;0.00;0.00;;;;;;;;;;4971461;28;20684;-79
2021/10/22 11:49:29;;;;;;;0.00;0.00;;;;;;;;;;4971362;28;20073;-79
2021/10/22 11:51:56;;;;;;;0.00;0.00;;;;;;;;;;4972564;28;20022;-80
2021/10/22 11:54:34;;;;;;;0.20;0.10;;;;;;;;;;4970259;28;20038;-79
2021/10/22 11:57:01;;;;;;;0.13;0.13;;;;;;;;;;4970764;28;20034;-78
2021/10/22 11:59:27;;;;;;;0.10;0.10;;;;;;;;;;4971320;28;20034;-79
2021/10/22 12:01:52;;;;;;;0.43;0.43;;;;;;;;;;4971096;28;20438;-79
2021/10/22 12:04:25;;;;;;;0.00;0.00;;;;;;;;;;4952843;28;20027;-78
2021/10/22 12:07:10;;;;;;;0.80;0.65;;;;;;;;;;4970511;28;20039;-79
2021/10/22 12:09:39;;;;;;;0.08;0.08;;;;;;;;;;4969440;28;20046;-79
2021/10/22 12:12:04;;;;;;;0.00;0.00;;;;;;;;;;4971101;28;20041;-79
2021/10/22 12:14:34;;;;;;;0.00;0.00;;;;;;;;;;4970456;28;20022;-79
2021/10/22 12:17:01;;;;;;;0.00;0.00;;;;;;;;;;4971092;28;20114;-79
2021/10/22 12:19:26;;;;;;;0.00;0.00;;;;;;;;;;4970219;28;20045;-79
2021/10/22 12:21:52;;;;;;;0.00;0.00;;;;;;;;;;4971005;28;20027;-78
2021/10/22 12:24:19;;;;;;;0.00;0.00;;;;;;;;;;4954040;28;20443;-79
2021/10/22 12:26:45;;;;;;;0.00;0.00;;;;;;;;;;4970707;28;20050;-79
2021/10/22 12:29:13;;;;;;;0.00;0.00;;;;;;;;;;4970373;28;20018;-79
2021/10/22 12:31:45;;;;;;;0.00;0.00;;;;;;;;;;4971394;28;20034;-79
2021/10/22 12:34:15;;;;;;;1.45;0.20;;;;;;;;;;4970719;28;20368;-80
2021/10/22 12:36:44;;;;;;;0.00;0.00;;;;;;;;;;4970557;28;20492;-80
2021/10/22 12:39:25;;;;;;;0.00;0.00;;;;;;;;;;4970945;28;20037;-78
2021/10/22 12:41:51;;;;;;;0.38;0.38;;;;;;;;;;4970740;28;20471;-78
2021/10/22 12:44:18;;;;;;;0.20;0.20;;;;;;;;;;4979881;28;20037;-79
2021/10/22 12:46:56;;;;;;;0.00;0.00;;;;;;;;;;4981543;28;20018;-79
2021/10/22 12:49:23;;;;;;;0.00;0.00;;;;;;;;;;4963128;28;20046;-80
2021/10/22 12:51:53;;;;;;;0.00;0.00;;;;;;;;;;4986141;28;20057;-81
2021/10/22 12:54:19;;;;;;;0.00;0.00;;;;;;;;;;4990546;28;20024;-79
2021/10/22 12:56:52;;;;;;;0.00;0.00;;;;;;;;;;4990429;28;20133;-80
2021/10/22 12:59:22;;;;;;;0.00;0.00;;;;;;;;;;4990037;28;20482;-79
2021/10/22 13:01:48;;;;;;;0.00;0.00;;;;;;;;;;4989925;28;20494;-79
2021/10/22 13:04:17;;;;;;;0.95;0.95;;;;;;;;;;4990066;28;20042;-80
2021/10/22 13:22:23;;;;;;;0.00;0.00;;;;;;;;;;4989684;28;20513;-81
2021/10/22 13:24:52;;;;;;;0.00;0.00;;;;;;;;;;4989865;28;20037;-79
2021/10/22 13:27:18;;;;;;;0.00;0.00;;;;;;;;;;4981810;28;20484;-80
2021/10/22 13:29:44;;;;;;;0.00;0.00;;;;;;;;;;4980300;28;20070;-82
2021/10/22 13:32:11;;;;;;;0.00;0.00;;;;;;;;;;4979404;28;20030;-81
2021/10/22 13:34:36;;;;;;;0.00;0.00;;;;;;;;;;4979122;28;20038;-80
2021/10/22 13:37:02;;;;;;;0.00;0.00;;;;;;;;;;4980207;28;20198;-80
2021/10/22 13:39:28;;;;;;;0.00;0.00;;;;;;;;;;4978467;28;20026;-80
2021/10/22 13:41:54;;;;;;;0.00;0.00;;;;;;;;;;4979798;28;20077;-80
2021/10/22 13:44:19;;;;;;;0.10;0.10;;;;;;;;;;4980196;28;20455;-80
2021/10/22 13:46:47;;;;;;;0.25;0.15;;;;;;;;;;4981402;28;20037;-80
2021/10/22 13:49:12;;;;;;;0.00;0.00;;;;;;;;;;4971862;28;20439;-80
2021/10/22 13:51:38;;;;;;;0.00;0.00;;;;;;;;;;4970587;28;20081;-80
2021/10/22 13:54:04;;;;;;;0.00;0.00;;;;;;;;;;4970194;28;20034;-80
2021/10/22 13:56:29;;;;;;;0.00;0.00;;;;;;;;;;4967072;28;20086;-80
2021/10/22 13:58:55;;;;;;;0.00;0.00;;;;;;;;;;4970687;28;20027;-83
2021/10/22 14:01:20;;;;;;;0.10;0.10;;;;;;;;;;4970582;28;20502;-80
2021/10/22 14:03:46;;;;;;;0.00;0.00;;;;;;;;;;4970097;28;20133;-80
2021/10/22 14:06:11;;;;;;;0.00;0.00;;;;;;;;;;4970286;28;20451;-80
2021/10/22 14:08:36;;;;;;;0.00;0.00;;;;;;;;;;4970452;28;20039;-80
2021/10/22 14:11:11;;;;;;;0.00;0.00;;;;;;;;;;4970265;28;20042;-81
2021/10/22 14:13:46;;;;;;;1.25;0.77;;;;;;;;;;4970515;28;20026;-79
2021/10/22 14:16:32;;;;;;;0.10;0.10;;;;;;;;;;4969821;28;20039;-80
2021/10/22 14:24:44;;;;;;;0.20;0.20;;;;;;;;;;4970183;28;20038;-80
2021/10/22 14:29:57;;;;;;;0.10;0.10;;;;;;;;;;4969533;28;20037;-80
2021/10/22 14:32:23;;;;;;;0.00;0.00;;;;;;;;;;4972242;28;20037;-80
2021/10/22 14:34:50;;;;;;;0.30;0.30;;;;;;;;;;4955432;28;20415;-80
2021/10/22 14:37:15;;;;;;;0.00;0.00;;;;;;;;;;4956286;28;20019;-80
2021/10/22 14:39:40;;;;;;;0.00;0.00;;;;;;;;;;4973608;28;20035;-80
2021/10/22 14:42:08;;;;;;;0.00;0.00;;;;;;;;;;4972758;28;20023;-80
2021/10/22 14:44:38;;;;;;;0.00;0.00;;;;;;;;;;4970606;28;20029;-80
2021/10/22 14:47:17;;;;;;;0.00;0.00;;;;;;;;;;4972808;28;20068;-80
2021/10/22 14:57:52;;;;;;;0.30;0.30;;;;;;;;;;4972446;28;20038;-82
2021/10/22 15:00:17;;;;;;;1.15;0.80;;;;;;;;;;4971908;28;20023;-81
2021/10/22 15:02:43;;;;;;;0.85;0.77;;;;;;;;;;4970877;28;20244;-80
2021/10/22 15:05:09;;;;;;;0.03;0.03;;;;;;;;;;4971306;28;20026;-80
2021/10/22 15:07:34;;;;;;;0.00;0.00;;;;;;;;;;4972613;28;20015;-80
2021/10/22 15:10:00;;;;;;;0.10;0.10;;;;;;;;;;4971470;28;20399;-80
2021/10/22 15:12:26;;;;;;;0.08;0.08;;;;;;;;;;4971729;28;20050;-80
2021/10/22 15:14:51;;;;;;;0.00;0.00;;;;;;;;;;4972137;28;20451;-80
2021/10/22 15:17:16;;;;;;;4.65;0.57;;;;;;;;;;4971658;28;20058;-80
2021/10/22 15:19:42;;;;;;;0.00;0.00;;;;;;;;;;4971356;28;20455;-80
2021/10/22 15:22:07;;;;;;;0.00;0.00;;;;;;;;;;4972380;28;20026;-80
2021/10/22 15:24:33;;;;;;;0.00;0.00;;;;;;;;;;4972674;28;20039;-82
2021/10/22 15:26:58;;;;;;;0.40;0.40;;;;;;;;;;4972529;28;20073;-81